Flight Track Log - Related Links

Times and Time Zones

All times are in EDT time to prevent confusion due to time zone crossing. See the TAM8014 flight status page for this flight to view local times or setup timezone preferences in your user account.

Time Position Orientation Groundspeed Altitude Reporting Facility
EDT Latitude Longitude Course Direction KTS MPH feet Rate Location/Type
Wed 06:10:41 AM -23.4310 -46.4840 163° South 9 10  Level FlightAware ADS-B
Wed 06:10:56 AM -23.4320 -46.4840 180° South 6 7 299 Level FlightAware ADS-B
Wed 06:13:00 AM -23.5867 -46.6277 220° Southwest  Level Estimated
Wed 06:13:46 AM -23.4330 -46.4840 220° Southwest 7 8  Level FlightAware ADS-B
Wed 06:16:00 AM -23.6001 -46.6393 220° Southwest  Level Estimated
Wed 06:17:00 AM -23.6749 -46.7090 220° Southwest  Level Estimated
Wed 06:18:00 AM -23.7497 -46.7787 220° Southwest  Level Estimated
Wed 06:18:17 AM -23.4340 -46.4810 220° Southwest 37 43  Level FlightAware ADS-B
Wed 06:18:37 AM -23.4320 -46.4740 73° East 125 144 3,333 Level FlightAware ADS-B
Wed 06:19:02 AM -23.4270 -46.4560 73° East 165 190 2,500 5,143 Climbing FlightAware ADS-B
Wed 06:19:12 AM -23.4250 -46.4480 75° East 159 183 3,000 1,833 Climbing FlightAware ADS-B
Wed 06:19:38 AM -23.4200 -46.4260 76° East 185 213 3,600 1,132 Climbing FlightAware ADS-B
Wed 06:20:05 AM -23.4280 -46.4050 113° Southeast 216 249 4,000 1,395 Climbing FlightAware ADS-B
Wed 06:20:21 AM -23.4440 -46.3980 158° South 221 254 4,600 2,714 Climbing FlightAware ADS-B
Wed 06:20:47 AM -23.4690 -46.4140 210° Southwest 198 228 5,900 2,353 Climbing FlightAware ADS-B
Wed 06:21:12 AM -23.4770 -46.4360 248° West 204 235 6,600 1,745 Climbing FlightAware ADS-B
Wed 06:21:42 AM -23.4910 -46.4660 243° Southwest 226 260 7,500 1,500 Climbing FlightAware ADS-B
Wed 06:22:12 AM -23.5110 -46.4960 234° Southwest 268 308 8,100 1,500 Climbing FlightAware ADS-B
Wed 06:22:22 AM -23.5200 -46.5070 228° Southwest 280 322 8,500 2,836 Climbing FlightAware ADS-B
Wed 06:23:07 AM -23.5560 -46.5560 231° Southwest 288 331 10,700 2,139 Climbing FlightAware ADS-B
Wed 06:24:03 AM -23.6140 -46.6270 228° Southwest 344 396 12,100 2,041 Climbing FlightAware ADS-B
Wed 06:24:44 AM -23.6620 -46.6740 222° Southwest 347 399 14,000 2,471 Climbing FlightAware ADS-B
Wed 06:25:28 AM -23.7160 -46.7270 222° Southwest 358 412 15,600 2,182 Climbing FlightAware ADS-B
Wed 06:26:12 AM -23.7700 -46.7810 222° Southwest 363 418 17,200 2,071 Climbing FlightAware ADS-B
Wed 06:26:52 AM -23.8210 -46.8320 222° Southwest 375 432 18,500 1,929 Climbing FlightAware ADS-B
Wed 06:27:36 AM -23.8770 -46.8870 222° Southwest 382 440 19,900 1,857 Climbing FlightAware ADS-B
Wed 06:28:16 AM -23.9310 -46.9410 222° Southwest 389 448 21,100 1,786 Climbing FlightAware ADS-B
Wed 06:29:00 AM -23.9910 -47.0010 222° Southwest 396 456 22,400 1,857 Climbing FlightAware ADS-B
Wed 06:29:40 AM -24.0440 -47.0540 222° Southwest 394 453 23,700 1,704 Climbing FlightAware ADS-B
Wed 06:30:21 AM -24.1000 -47.1100 222° Southwest 401 461 24,700 1,357 Climbing FlightAware ADS-B
Wed 06:31:04 AM -24.1600 -47.1700 222° Southwest 409 471 25,600 1,213 Climbing FlightAware ADS-B
Wed 06:31:50 AM -24.2260 -47.2350 222° Southwest 419 482 26,500 1,326 Climbing FlightAware ADS-B
Wed 06:32:30 AM -24.2840 -47.2910 221° Southwest 420 483 27,500 1,308 Climbing FlightAware ADS-B
Wed 06:33:08 AM -24.3400 -47.3450 221° Southwest 425 489 28,200 1,171 Climbing FlightAware ADS-B
Wed 06:33:52 AM -24.3990 -47.4030 222° Southwest 426 490 29,100 1,271 Climbing FlightAware ADS-B
Wed 06:34:33 AM -24.4600 -47.4630 222° Southwest 425 489 30,000 1,111 Climbing FlightAware ADS-B
Wed 06:35:13 AM -24.5230 -47.5250 222° Southwest 433 498 30,600 1,215 Climbing FlightAware ADS-B
Wed 06:35:52 AM -24.5790 -47.5800 222° Southwest 424 488 31,600 1,308 Climbing FlightAware ADS-B
Wed 06:36:31 AM -24.6350 -47.6350 222° Southwest 424 488 32,300 911 Climbing FlightAware ADS-B
Wed 06:37:11 AM -24.6900 -47.6890 222° Southwest 426 490 32,800 940 Climbing FlightAware ADS-B
Wed 06:37:54 AM -24.7540 -47.7520 222° Southwest 424 488 33,600 1,109 Climbing FlightAware ADS-B
Wed 06:38:43 AM -24.8260 -47.8240 222° Southwest 422 486 34,500 1,079 Climbing FlightAware ADS-B
Wed 06:39:23 AM -24.8890 -47.8860 222° Southwest 416 479 35,200 940 Climbing FlightAware ADS-B
Wed 06:40:06 AM -24.9480 -47.9450 222° Southwest 416 479 35,800 578 Climbing FlightAware ADS-B
Wed 06:40:46 AM -25.0060 -48.0020 222° Southwest 409 471 36,000 150 Climbing FlightAware ADS-B
Wed 06:41:26 AM -25.0630 -48.0580 222° Southwest 412 474 36,000  Level FlightAware ADS-B
Wed 06:42:11 AM -25.1260 -48.1210 222° Southwest 413 475 36,000  Level FlightAware ADS-B
Wed 06:42:51 AM -25.1830 -48.1780 222° Southwest 415 478 36,000  Level FlightAware ADS-B
Wed 06:43:36 AM -25.2460 -48.2410 222° Southwest 416 479 36,000  Level FlightAware ADS-B
Wed 06:44:16 AM -25.3010 -48.2950 222° Southwest 416 479 36,000  Level FlightAware ADS-B
Wed 06:44:56 AM -25.3580 -48.3530 223° Southwest 416 479 36,000  Level FlightAware ADS-B
Wed 06:45:42 AM -25.4260 -48.4210 222° Southwest 418 481 36,000  Level FlightAware ADS-B
Wed 06:46:21 AM -25.4820 -48.4770 222° Southwest 417 480 36,000  Level FlightAware ADS-B
Wed 06:47:06 AM -25.5470 -48.5410 222° Southwest 418 481 36,000  Level FlightAware ADS-B
Wed 06:47:46 AM -25.6080 -48.5950 219° Southwest 418 481 36,000  Level FlightAware ADS-B
Wed 06:48:26 AM -25.6680 -48.6480 219° Southwest 417 480 36,000  Level FlightAware ADS-B
Wed 06:49:06 AM -25.7290 -48.7020 219° Southwest 417 480 36,000  Level FlightAware ADS-B
Wed 06:49:51 AM -25.7950 -48.7610 219° Southwest 416 479 36,000  Level FlightAware ADS-B
Wed 06:50:46 AM -25.8780 -48.8350 219° Southwest 415 478 36,000  Level FlightAware ADS-B
Wed 06:51:31 AM -25.9460 -48.8960 219° Southwest 412 474 36,000  Level FlightAware ADS-B
Wed 06:52:13 AM -26.0040 -48.9480 219° Southwest 412 474 36,000  Level FlightAware ADS-B
Wed 06:52:51 AM -26.0640 -49.0020 219° Southwest 412 474 36,000  Level FlightAware ADS-B
Wed 06:53:31 AM -26.1210 -49.0530 219° Southwest 412 474 36,000  Level FlightAware ADS-B
Wed 06:54:31 AM -26.2080 -49.1310 219° Southwest 412 474 36,000  Level FlightAware ADS-B
Wed 06:55:12 AM -26.2710 -49.1870 219° Southwest 413 475 36,000  Level FlightAware ADS-B
Wed 06:55:53 AM -26.3340 -49.2450 220° Southwest 413 475 36,000  Level FlightAware ADS-B
Wed 06:56:34 AM -26.3950 -49.3000 219° Southwest 411 473 36,000  Level FlightAware ADS-B
Wed 06:57:19 AM -26.4620 -49.3610 219° Southwest 410 472 36,000  Level FlightAware ADS-B
Wed 06:58:04 AM -26.5280 -49.4200 219° Southwest 411 473 36,000  Level FlightAware ADS-B
Wed 06:58:44 AM -26.5890 -49.4750 219° Southwest 410 472 36,000  Level FlightAware ADS-B
Wed 06:59:22 AM -26.6420 -49.5240 220° Southwest 410 472 36,000  Level FlightAware ADS-B
Wed 07:00:49 AM -26.7600 -49.6300 219° Southwest 410 472 36,000  Level FlightAware ADS-B
Wed 07:02:53 AM -26.9350 -49.7910 222° Southwest 409 471 36,000  Level FlightAware ADS-B
Wed 07:03:00 AM -26.9099 -49.7811 222° Southwest  Level Estimated
Wed 07:03:33 AM -27.0070 -49.8570 219° Southwest 408 470 36,000  Level FlightAware ADS-B
Wed 07:04:13 AM -27.0670 -49.9120 219° Southwest 408 470 36,000  Level FlightAware ADS-B
Wed 07:04:48 AM -27.1190 -49.9590 219° Southwest 408 470 36,000  Level FlightAware ADS-B
Wed 07:05:33 AM -27.1870 -50.0220 219° Southwest 410 472 36,000  Level FlightAware ADS-B
Wed 07:06:16 AM -27.2400 -50.0700 219° Southwest 410 472 36,000  Level FlightAware ADS-B
Wed 07:06:52 AM -27.2850 -50.1110 219° Southwest 410 472 36,000  Level FlightAware ADS-B
Wed 07:07:43 AM -27.3800 -50.2000 220° Southwest 412 474 36,000  Level FlightAware ADS-B
Wed 07:08:19 AM -27.4330 -50.2490 219° Southwest 412 474 36,000  Level FlightAware ADS-B
Wed 07:09:07 AM -27.4840 -50.2960 219° Southwest 412 474 36,000  Level FlightAware ADS-B
Wed 07:09:46 AM -27.5440 -50.3520 220° Southwest 411 473 36,000  Level FlightAware ADS-B
Wed 07:10:26 AM -27.6030 -50.4060 219° Southwest 410 472 36,000  Level FlightAware ADS-B
Wed 07:12:25 AM -27.7710 -50.5630 220° Southwest 406 467 36,000  Level FlightAware ADS-B
Wed 07:13:07 AM -27.8530 -50.6400 220° Southwest 406 467 36,000  Level FlightAware ADS-B
Wed 07:13:51 AM -27.9170 -50.7000 220° Southwest 405 466 36,000  Level FlightAware ADS-B
Wed 07:14:27 AM -27.9690 -50.7480 219° Southwest 405 466 36,000  Level FlightAware ADS-B
Wed 07:15:07 AM -28.0260 -50.8020 220° Southwest 406 467 36,000  Level FlightAware ADS-B
Wed 07:15:47 AM -28.0840 -50.8570 220° Southwest 408 470 36,000  Level FlightAware ADS-B
Wed 07:16:31 AM -28.1490 -50.9180 220° Southwest 408 470 36,000  Level FlightAware ADS-B
Wed 07:17:13 AM -28.2100 -50.9760 220° Southwest 410 472 36,000  Level FlightAware ADS-B
Wed 07:17:55 AM -28.2700 -51.0320 219° Southwest 412 474 36,000  Level FlightAware ADS-B
Wed 07:18:35 AM -28.3290 -51.0890 220° Southwest 413 475 36,000  Level FlightAware ADS-B
Wed 07:19:19 AM -28.3940 -51.1490 219° Southwest 415 478 36,000  Level FlightAware ADS-B
Wed 07:19:59 AM -28.4520 -51.2050 220° Southwest 414 476 36,000  Level FlightAware ADS-B
Wed 07:20:43 AM -28.5180 -51.2680 220° Southwest 413 475 36,000  Level FlightAware ADS-B
Wed 07:21:23 AM -28.5770 -51.3240 220° Southwest 413 475 36,000  Level FlightAware ADS-B
Wed 07:22:07 AM -28.6410 -51.3840 219° Southwest 412 474 36,000  Level FlightAware ADS-B
Wed 07:22:49 AM -28.7020 -51.4430 220° Southwest 412 474 36,000  Level FlightAware ADS-B
Wed 07:23:33 AM -28.7670 -51.5050 220° Southwest 411 473 36,000  Level FlightAware ADS-B
Wed 07:24:13 AM -28.8250 -51.5610 220° Southwest 412 474 36,000  Level FlightAware ADS-B
Wed 07:24:57 AM -28.8890 -51.6220 220° Southwest 412 474 36,000  Level FlightAware ADS-B
Wed 07:25:37 AM -28.9470 -51.6780 220° Southwest 410 472 36,000  Level FlightAware ADS-B
Wed 07:26:13 AM -28.9990 -51.7280 220° Southwest 410 472 36,000  Level FlightAware ADS-B
Wed 07:26:53 AM -29.0580 -51.7840 220° Southwest 409 471 36,000  Level FlightAware ADS-B
Wed 07:27:37 AM -29.1200 -51.8450 221° Southwest 409 471 36,000  Level FlightAware ADS-B
Wed 07:28:17 AM -29.1780 -51.9000 220° Southwest 409 471 36,000  Level FlightAware ADS-B
Wed 07:28:53 AM -29.2300 -51.9510 221° Southwest 408 470 36,000  Level FlightAware ADS-B
Wed 07:29:35 AM -29.2920 -52.0120 221° Southwest 409 471 36,000  Level FlightAware ADS-B
Wed 07:30:11 AM -29.3430 -52.0610 220° Southwest 410 472 36,000  Level FlightAware ADS-B
Wed 07:30:57 AM -29.4110 -52.1270 220° Southwest 410 472 36,000  Level FlightAware ADS-B
Wed 07:31:41 AM -29.4740 -52.1890 221° Southwest 412 474 36,000  Level FlightAware ADS-B
Wed 07:32:21 AM -29.5320 -52.2450 220° Southwest 412 474 36,000  Level FlightAware ADS-B
Wed 07:33:05 AM -29.5950 -52.3070 221° Southwest 412 474 36,000  Level FlightAware ADS-B
Wed 07:33:41 AM -29.6290 -52.3400 220° Southwest 413 475 36,000  Level FlightAware ADS-B
Wed 07:34:21 AM -29.6870 -52.3970 220° Southwest 412 474 36,000  Level FlightAware ADS-B
Wed 07:35:06 AM -29.7520 -52.4610 221° Southwest 411 473 36,000  Level FlightAware ADS-B
Wed 07:35:36 AM -29.7920 -52.5010 221° Southwest 410 472 36,000  Level FlightAware ADS-B
Wed 07:36:21 AM -29.8540 -52.5620 220° Southwest 408 470 36,000  Level FlightAware ADS-B
Wed 07:37:01 AM -29.9120 -52.6180 220° Southwest 407 468 36,000  Level FlightAware ADS-B
Wed 07:37:41 AM -29.9630 -52.6690 221° Southwest 406 467 36,000  Level FlightAware ADS-B
Wed 07:38:26 AM -30.0220 -52.7270 220° Southwest 404 465 36,000  Level FlightAware ADS-B
Wed 07:39:11 AM -30.0830 -52.7880 221° Southwest 403 464 36,000  Level FlightAware ADS-B
Wed 07:39:51 AM -30.1400 -52.8450 221° Southwest 404 465 36,000  Level FlightAware ADS-B
Wed 07:40:31 AM -30.1920 -52.8970 221° Southwest 403 464 36,000  Level FlightAware ADS-B
Wed 07:41:11 AM -30.2390 -52.9440 221° Southwest 403 464 36,000  Level FlightAware ADS-B
Wed 07:41:56 AM -30.3070 -53.0110 220° Southwest 402 463 36,000  Level FlightAware ADS-B
Wed 07:42:36 AM -30.3540 -53.0590 221° Southwest 401 461 36,000  Level FlightAware ADS-B
Wed 07:43:17 AM -30.3990 -53.1030 220° Southwest 400 460 36,000  Level FlightAware ADS-B
Wed 07:44:02 AM -30.4540 -53.1590 221° Southwest 401 461 36,000  Level FlightAware ADS-B
Wed 07:44:43 AM -30.5870 -53.2920 221° Southwest 399 459 36,000  Level FlightAware ADS-B
Wed 07:45:28 AM -30.6490 -53.3540 221° Southwest 398 458 36,000  Level FlightAware ADS-B
Wed 07:46:07 AM -30.7010 -53.4070 221° Southwest 398 458 36,000  Level FlightAware ADS-B
Wed 07:46:52 AM -30.7650 -53.4710 221° Southwest 396 456 36,000  Level FlightAware ADS-B
Wed 07:47:27 AM -30.8140 -53.5210 221° Southwest 396 456 36,000  Level FlightAware ADS-B
Wed 07:48:07 AM -30.8700 -53.5780 221° Southwest 398 458 36,000  Level FlightAware ADS-B
Wed 07:49:03 AM -30.9460 -53.6540 221° Southwest 399 459 36,000  Level FlightAware ADS-B
Wed 07:49:38 AM -30.9950 -53.7050 222° Southwest 399 459 36,000  Level FlightAware ADS-B
Wed 07:50:18 AM -31.0520 -53.7620 221° Southwest 400 460 36,000  Level FlightAware ADS-B
Wed 07:50:58 AM -31.1070 -53.8180 221° Southwest 399 459 36,000  Level FlightAware ADS-B
Wed 07:51:43 AM -31.1700 -53.8830 221° Southwest 399 459 36,000  Level FlightAware ADS-B
Wed 07:52:28 AM -31.2330 -53.9470 221° Southwest 399 459 36,000  Level FlightAware ADS-B
Wed 07:53:08 AM -31.2880 -54.0040 222° Southwest 399 459 36,000  Level FlightAware ADS-B
Wed 07:53:44 AM -31.3330 -54.0500 221° Southwest 397 457 36,000  Level FlightAware ADS-B
Wed 07:54:23 AM -31.3910 -54.1090 221° Southwest 396 456 36,000  Level FlightAware ADS-B
Wed 07:55:08 AM -31.4510 -54.1790 225° Southwest 396 456 36,000  Level FlightAware ADS-B
Wed 07:55:48 AM -31.5020 -54.2400 226° Southwest 396 456 36,000  Level FlightAware ADS-B
Wed 07:56:23 AM -31.5470 -54.2920 225° Southwest 395 455 36,000  Level FlightAware ADS-B
Wed 07:57:03 AM -31.5980 -54.3530 226° Southwest 395 455 36,000  Level FlightAware ADS-B
Wed 07:57:48 AM -31.6490 -54.4160 226° Southwest 395 455 36,000  Level FlightAware ADS-B
Wed 07:58:22 AM -31.6860 -54.4600 225° Southwest 395 455 36,000  Level FlightAware ADS-B
Wed 07:59:20 AM -31.7570 -54.5490 227° Southwest 394 453 36,000  Level FlightAware ADS-B
Wed 07:59:56 AM -31.7950 -54.5960 226° Southwest 394 453 36,000  Level FlightAware ADS-B
Wed 08:00:44 AM -31.8470 -54.6590 226° Southwest 394 453 36,000  Level FlightAware ADS-B
Wed 08:01:20 AM -31.8860 -54.7060 226° Southwest 394 453 36,000  Level FlightAware ADS-B
Wed 08:01:57 AM -31.9260 -54.7550 226° Southwest 394 453 36,000  Level FlightAware ADS-B
Wed 08:02:33 AM -31.9640 -54.8020 226° Southwest 394 453 36,000  Level FlightAware ADS-B
Wed 08:03:33 AM -32.0290 -54.8810 226° Southwest 394 453 36,000  Level FlightAware ADS-B
Wed 08:04:09 AM -32.0680 -54.9280 226° Southwest 394 453 36,000  Level FlightAware ADS-B
Wed 08:04:57 AM -32.1190 -54.9910 226° Southwest 394 453 36,000  Level FlightAware ADS-B
Wed 08:05:33 AM -32.1580 -55.0390 226° Southwest 394 453 36,000  Level FlightAware ADS-B
Wed 08:06:21 AM -32.2100 -55.1020 226° Southwest 394 453 36,000  Level FlightAware ADS-B
Wed 08:06:57 AM -32.2480 -55.1500 227° Southwest 394 453 36,000  Level FlightAware ADS-B
Wed 08:07:45 AM -32.3000 -55.2130 226° Southwest 394 453 36,000  Level FlightAware ADS-B
Wed 08:08:22 AM -32.3400 -55.2620 226° Southwest 394 453 36,000  Level FlightAware ADS-B
Wed 08:11:00 AM -32.4994 -55.4796 229° Southwest  Level Estimated
Wed 08:12:00 AM -32.5598 -55.5625 229° Southwest  Level Estimated
Wed 08:13:00 AM -32.6202 -55.6454 229° Southwest  Level Estimated
Wed 08:14:00 AM -32.6805 -55.7285 229° Southwest  Level Estimated
Wed 08:14:48 AM -32.9030 -55.9970 229° Southwest 384 442 36,000  Level FlightAware ADS-B
Wed 08:15:00 AM -32.7408 -55.8116 229° Southwest  Level Estimated
Wed 08:17:00 AM -33.0338 -56.1823 230° Southwest  Level Estimated
Wed 08:17:24 AM -33.0640 -56.2020 230° Southwest 384 442 36,000  Level FlightAware ADS-B
Wed 08:18:09 AM -33.1100 -56.2620 228° Southwest 384 442 36,000  Level FlightAware ADS-B
Wed 08:18:43 AM -33.1450 -56.3060 226° Southwest 384 442 36,000  Level FlightAware ADS-B
Wed 08:19:27 AM -33.1910 -56.3650 227° Southwest 384 442 36,000  Level FlightAware ADS-B
Wed 08:20:16 AM -33.2410 -56.4290 227° Southwest 384 442 36,000  Level FlightAware ADS-B
Wed 08:21:08 AM -33.3600 -56.5890 228° Southwest 383 441 36,000  Level FlightAware ADS-B
Wed 08:21:48 AM -33.4070 -56.6510 228° Southwest 384 442 36,000  Level FlightAware ADS-B
Wed 08:22:34 AM -33.4640 -56.7260 228° Southwest 385 443 36,000 -659 Level FlightAware ADS-B
Wed 08:23:10 AM -33.5070 -56.7820 227° Southwest 387 445 35,100 -1,814 Descending FlightAware ADS-B
Wed 08:24:00 AM -33.5680 -56.8620 228° Southwest 375 432 33,400 -1,448 Descending FlightAware ADS-B
Wed 08:24:37 AM -33.6070 -56.9130 227° Southwest 373 429 33,000 -2,096 Descending FlightAware ADS-B
Wed 08:25:23 AM -33.6610 -56.9860 228° Southwest 359 413 30,500 -2,682 Descending FlightAware ADS-B
Wed 08:26:02 AM -33.7050 -57.0440 228° Southwest 355 409 29,200 -2,026 Descending FlightAware ADS-B
Wed 08:26:40 AM -33.7470 -57.0990 227° Southwest 350 403 27,900 -2,122 Descending FlightAware ADS-B
Wed 08:27:24 AM -33.7940 -57.1620 228° Southwest 348 400 26,300 -2,143 Descending FlightAware ADS-B
Wed 08:28:04 AM -33.8370 -57.2190 228° Southwest 345 397 24,900 -2,132 Descending FlightAware ADS-B
Wed 08:28:40 AM -33.8750 -57.2700 228° Southwest 343 395 23,600 -2,053 Descending FlightAware ADS-B
Wed 08:29:20 AM -33.9180 -57.3270 228° Southwest 339 390 22,300 -1,929 Descending FlightAware ADS-B
Wed 08:30:04 AM -33.9630 -57.3880 228° Southwest 333 383 20,900 -1,976 Descending FlightAware ADS-B
Wed 08:30:42 AM -34.0030 -57.4400 227° Southwest 330 380 19,600 -2,071 Descending FlightAware ADS-B
Wed 08:31:28 AM -34.0490 -57.5020 228° Southwest 322 371 18,000 -2,093 Descending FlightAware ADS-B
Wed 08:32:08 AM -34.0880 -57.5550 228° Southwest 314 361 16,600 -2,047 Descending FlightAware ADS-B
Wed 08:32:53 AM -34.1310 -57.6130 228° Southwest 303 349 15,100 -1,950 Descending FlightAware ADS-B
Wed 08:33:28 AM -34.1640 -57.6560 227° Southwest 296 341 14,000 -1,737 Descending FlightAware ADS-B
Wed 08:34:09 AM -34.2000 -57.7060 229° Southwest 286 329 12,900 -1,650 Descending FlightAware ADS-B
Wed 08:34:48 AM -34.2350 -57.7520 227° Southwest 275 316 11,800 -1,658 Descending FlightAware ADS-B
Wed 08:35:25 AM -34.2650 -57.7930 228° Southwest 269 310 10,800 -1,259 Descending FlightAware ADS-B
Wed 08:36:09 AM -34.3000 -57.8400 228° Southwest 252 290 10,100 -930 Descending FlightAware ADS-B
Wed 08:36:36 AM -34.3210 -57.8690 229° Southwest 240 276 9,700 -1,071 Descending FlightAware ADS-B
Wed 08:37:05 AM -34.3420 -57.8980 229° Southwest 236 272 9,100 -1,469 Descending FlightAware ADS-B
Wed 08:37:25 AM -34.3580 -57.9160 223° Southwest 243 280 8,500 -1,375 Descending FlightAware ADS-B
Wed 08:37:53 AM -34.3830 -57.9380 216° Southwest 239 275 8,000 -1,038 Descending FlightAware ADS-B
Wed 08:38:17 AM -34.4040 -57.9570 217° Southwest 235 270 7,600 -1,053 Descending FlightAware ADS-B
Wed 08:38:50 AM -34.4330 -57.9840 218° Southwest 229 264 7,000 -632 Descending FlightAware ADS-B
Wed 08:39:14 AM -34.4540 -58.0030 217° Southwest 235 270 7,000 -444 Level FlightAware ADS-B
Wed 08:39:44 AM -34.4800 -58.0270 217° Southwest 229 264 6,600 -1,179 Descending FlightAware ADS-B
Wed 08:40:10 AM -34.5010 -58.0460 217° Southwest 230 265 5,900 -1,500 Descending FlightAware ADS-B
Wed 08:40:40 AM -34.5270 -58.0700 217° Southwest 231 266 5,200 -1,400 Descending FlightAware ADS-B
Wed 08:41:10 AM -34.5530 -58.0940 217° Southwest 234 269 4,500 -1,345 Descending FlightAware ADS-B
Wed 08:41:38 AM -34.5780 -58.1160 216° Southwest 232 267 3,900 -1,200 Descending FlightAware ADS-B
Wed 08:41:50 AM -34.5880 -58.1260 219° Southwest 231 266 3,700 -1,024 Descending FlightAware ADS-B
Wed 08:42:19 AM -34.6110 -58.1480 218° Southwest 229 264 3,200 -1,053 Descending FlightAware ADS-B
Wed 08:42:47 AM -34.6350 -58.1700 217° Southwest 224 258 2,700 -837 Descending FlightAware ADS-B
Wed 08:43:02 AM -34.6480 -58.1820 217° Southwest 227 261 2,600 -154 Descending FlightAware ADS-B
Wed 08:43:26 AM -34.6660 -58.2000 219° Southwest 202 232 2,600 -150 Level FlightAware ADS-B
Wed 08:43:42 AM -34.6710 -58.2150 248° West 181 208 2,500 -419 Descending FlightAware ADS-B
Wed 08:44:09 AM -34.6650 -58.2390 287° West 171 197 2,300 -737 Descending FlightAware ADS-B
Wed 08:44:39 AM -34.6490 -58.2590 314° West 157 181 1,800 -833 Descending FlightAware ADS-B
Wed 08:44:45 AM -34.6470 -58.2620 309° West 154 177 1,800  Level FlightAware ADS-B
Wed 08:45:20 AM -34.6320 -58.2840 310° West 127 146 1,800  Level FlightAware ADS-B
Wed 08:45:48 AM -34.6230 -58.3010 303° West 130 150 1,800 -231 Level FlightAware ADS-B
Wed 08:46:12 AM -34.6150 -58.3150 305° West 126 145 1,600 -409 Descending FlightAware ADS-B
Wed 08:46:32 AM -34.6080 -58.3270 305° West 128 147 1,500 -375 Descending FlightAware ADS-B
Wed 08:47:00 AM -34.5990 -58.3430 304° West 127 146 1,300 -421 Descending FlightAware ADS-B
Wed 08:47:29 AM -34.5900 -58.3600 303° West 127 146 1,100 -632 Descending FlightAware ADS-B
Wed 08:47:57 AM -34.5800 -58.3770 306° West 127 146 700 -706 Descending FlightAware ADS-B
Wed 08:48:20 AM -34.5730 -58.3910 301° West 127 146 500 -245 Descending FlightAware ADS-B
Wed 08:48:46 AM -34.5660 -58.4040 303° West 127 146 500  Level FlightAware ADS-B
Wed 08:51:00 AM -34.5592 -58.4156 306° West  Level Estimated
Wed 08:52:00 AM -34.5592 -58.4156 147° Southeast  Level Estimated
Wed 08:53:00 AM -34.5592 -58.4156 33° Northeast  Level Estimated
Wed 08:54:00 AM -34.5592 -58.4156 147° Southeast  Level Estimated
Wed 08:55:00 AM -34.5592 -58.4156 33° Northeast  Level Estimated
Wed 08:56:00 AM -34.5592 -58.4156 147° Southeast  Level Estimated
Wed 08:57:00 AM -34.5592 -58.4156 33° Northeast  Level Estimated
Wed 08:58:00 AM -34.5592 -58.4156 147° Southeast  Level Estimated
Wed 08:59:00 AM -34.5592 -58.4156 33° Northeast  Level Estimated
Wed 09:00:00 AM -34.5592 -58.4156 147° Southeast  Level Estimated
Wed 09:01:00 AM -34.5592 -58.4156 33° Northeast  Level Estimated
Wed 09:02:00 AM -34.5592 -58.4156 147° Southeast  Level Estimated
Wed 09:03:00 AM -34.5592 -58.4156 33° Northeast  Level Estimated
Wed 09:04:00 AM -34.5592 -58.4156 147° Southeast  Level Estimated
Wed 09:05:00 AM -34.5592 -58.4156 33° Northeast  Level Estimated
Wed 09:06:00 AM -34.5592 -58.4156 147° Southeast  Level Estimated
Wed 09:07:00 AM -34.5592 -58.4156 33° Northeast  Level Estimated
Wed 09:08:00 AM -34.5592 -58.4156 147° Southeast  Level Estimated
Wed 09:09:00 AM -34.5592 -58.4156 33° Northeast  Level Estimated
Wed 09:10:00 AM -34.5592 -58.4156 147° Southeast  Level Estimated
Wed 09:11:00 AM -34.5592 -58.4156 33° Northeast  Level Estimated
Wed 09:12:00 AM -34.5592 -58.4156 147° Southeast  Level Estimated
Wed 09:13:00 AM -34.5592 -58.4156 33° Northeast  Level Estimated
Wed 09:14:00 AM -34.5592 -58.4156 147° Southeast  Level Estimated
Wed 09:15:00 AM -34.5592 -58.4156 33° Northeast  Level Estimated
Wed 09:16:00 AM -34.5592 -58.4156 147° Southeast  Level Estimated
Wed 09:17:00 AM -34.5592 -58.4156 33° Northeast  Level Estimated
Wed 09:18:00 AM -34.5592 -58.4156 147° Southeast  Level Estimated
Wed 09:19:00 AM -34.5592 -58.4156 33° Northeast  Level Estimated

Login

Don't have an account? Register now (free) for customized features, flight alerts, and more!